createdAt,value
2018-12-20T00:01:28.501Z,97107.25
2018-12-20T00:06:24.509Z,97103.25
2018-12-20T00:11:19.239Z,97108.28
2018-12-20T00:16:15.690Z,97106.41
2018-12-20T00:21:11.841Z,97116.20
2018-12-20T00:26:06.915Z,97113.08
2018-12-20T00:31:01.663Z,97104.93
2018-12-20T00:35:57.420Z,97109.20
2018-12-20T00:40:52.808Z,97116.20
2018-12-20T00:45:47.734Z,97123.12
2018-12-20T00:50:46.938Z,97117.88
2018-12-20T00:55:49.295Z,97113.80
2018-12-20T01:00:44.960Z,97126.11
2018-12-20T01:05:39.804Z,97120.78
2018-12-20T01:10:35.081Z,97114.69
2018-12-20T01:15:31.616Z,97120.97
2018-12-20T01:20:26.749Z,97136.39
2018-12-20T01:25:22.778Z,97144.09
2018-12-20T01:30:17.550Z,97149.66
2018-12-20T01:35:13.443Z,97147.78
2018-12-20T01:40:09.612Z,97155.17
2018-12-20T01:45:05.380Z,97154.44
2018-12-20T01:50:00.830Z,97168.48
2018-12-20T01:54:56.420Z,97156.59
2018-12-20T01:59:52.266Z,97162.59
2018-12-20T02:04:48.491Z,97170.91
2018-12-20T02:09:44.960Z,97179.31
2018-12-20T02:14:39.835Z,97178.11
2018-12-20T02:19:34.995Z,97165.83
2018-12-20T02:24:31.631Z,97169.07
2018-12-20T02:29:26.630Z,97173.41
2018-12-20T02:34:21.366Z,97175.92
2018-12-20T02:39:16.689Z,97168.17
2018-12-20T02:44:11.668Z,97168.17
2018-12-20T02:49:08.313Z,97165.41
2018-12-20T02:54:04.377Z,97166.44
2018-12-20T02:59:00.560Z,97163.25
2018-12-20T03:03:55.216Z,97155.28
2018-12-20T03:08:51.435Z,97155.28
2018-12-20T03:13:46.877Z,97151.09
2018-12-20T03:18:42.947Z,97154.59
2018-12-20T03:23:39.295Z,97157.22
2018-12-20T03:28:34.077Z,97153.48
2018-12-20T03:33:30.477Z,97150.81
2018-12-20T03:38:25.537Z,97150.74
2018-12-20T03:43:21.534Z,97158.67
2018-12-20T03:48:16.647Z,97152.00
2018-12-20T03:53:11.702Z,97155.88
2018-12-20T03:58:08.265Z,97157.87
2018-12-20T04:24:30.765Z,97169.30
2018-12-20T04:29:34.731Z,97166.71
2018-12-20T04:50:32.901Z,97172.39
2018-12-20T04:55:33.461Z,97165.19
2018-12-20T05:00:33.229Z,97178.06
2018-12-20T05:05:34.421Z,97187.48
2018-12-20T05:31:32.583Z,97209.58
2018-12-20T05:36:33.968Z,97221.17
2018-12-20T05:41:34.891Z,97224.14
2018-12-20T05:46:34.750Z,97237.19
2018-12-20T05:51:29.874Z,97227.05
2018-12-20T05:56:30.823Z,97234.33
2018-12-20T06:01:33.558Z,97239.24
2018-12-20T06:06:34.540Z,97242.41
2018-12-20T06:11:29.249Z,97241.30
2018-12-20T06:16:24.083Z,97228.75
2018-12-20T06:21:19.211Z,97237.38
2018-12-20T06:26:13.943Z,97237.68
2018-12-20T06:41:41.954Z,97253.94
2018-12-20T06:46:44.121Z,97251.65
2018-12-20T06:57:21.469Z,97266.30
2018-12-20T07:02:29.100Z,97268.52
2018-12-20T07:07:24.061Z,97274.72
2018-12-20T07:12:19.003Z,97282.13
2018-12-20T07:17:14.131Z,97283.12
2018-12-20T07:22:08.992Z,97290.83
2018-12-20T07:27:03.680Z,97281.25
2018-12-20T07:32:01.466Z,97286.36
2018-12-20T07:36:56.986Z,97283.48
2018-12-20T07:41:54.702Z,97293.25
2018-12-20T07:46:52.967Z,97295.34
2018-12-20T07:51:50.567Z,97288.96
2018-12-20T07:56:46.396Z,97292.35
2018-12-20T08:01:43.154Z,97291.45
2018-12-20T08:06:37.924Z,97294.21
2018-12-20T08:11:32.744Z,97295.35
2018-12-20T08:21:49.354Z,97308.41
2018-12-20T08:26:53.693Z,97317.87
2018-12-20T08:31:57.492Z,97324.95
2018-12-20T08:36:52.440Z,97344.33
2018-12-20T08:41:53.055Z,97347.02
2018-12-20T08:46:54.368Z,97343.51
2018-12-20T08:57:09.523Z,97344.47
2018-12-20T09:02:30.717Z,97345.23
2018-12-20T09:07:27.088Z,97357.83
2018-12-20T09:12:33.544Z,97360.62
2018-12-20T09:18:39.520Z,97364.38
2018-12-20T09:23:35.953Z,97371.36
2018-12-20T09:28:35.025Z,97379.87
2018-12-20T09:33:38.072Z,97383.27
2018-12-20T09:38:36.250Z,97385.41
2018-12-20T09:43:49.417Z,97389.92
2018-12-20T09:54:43.888Z,97378.35
2018-12-20T10:00:13.464Z,97374.45
2018-12-20T10:17:10.862Z,97374.38
2018-12-20T10:22:38.580Z,97374.47
2018-12-20T10:35:33.684Z,97379.34
2018-12-20T10:58:39.190Z,97359.37
2018-12-20T11:10:29.595Z,97341.76
2018-12-20T11:15:24.770Z,97342.08
2018-12-20T11:52:19.593Z,97319.66
2018-12-20T12:02:25.889Z,97307.88
2018-12-20T12:12:52.370Z,97300.76
2018-12-20T12:17:54.301Z,97303.02
2018-12-20T12:22:51.141Z,97295.77
2018-12-20T12:27:57.117Z,97296.48
2018-12-20T12:33:00.571Z,97294.81
2018-12-20T12:37:55.567Z,97297.52
2018-12-20T12:42:50.243Z,97290.89
2018-12-20T12:47:50.226Z,97282.44
2018-12-20T12:52:44.877Z,97285.30
2018-12-20T12:57:39.511Z,97277.38
2018-12-20T13:02:34.163Z,97284.62
2018-12-20T13:07:28.836Z,97286.21
2018-12-20T13:12:24.588Z,97291.66
2018-12-20T13:17:19.368Z,97292.09
2018-12-20T13:22:14.304Z,97292.45
2018-12-20T13:27:09.272Z,97295.22
2018-12-20T13:32:04.064Z,97306.36
2018-12-20T13:36:58.736Z,97308.10
2018-12-20T13:41:53.529Z,97301.48
2018-12-20T13:46:48.464Z,97307.70
2018-12-20T13:51:43.702Z,97316.16
2018-12-20T13:56:38.798Z,97313.38
2018-12-20T14:01:35.117Z,97314.32
2018-12-20T14:06:31.655Z,97308.23
2018-12-20T14:11:28.045Z,97326.07
2018-12-20T14:16:22.910Z,97328.45
2018-12-20T14:21:18.683Z,97332.64
2018-12-20T14:26:16.324Z,97336.58
2018-12-20T14:31:11.239Z,97332.50
2018-12-20T14:36:06.023Z,97328.59
2018-12-20T14:41:09.206Z,97327.25
2018-12-20T14:46:03.992Z,97334.17
2018-12-20T14:50:58.837Z,97331.48
2018-12-20T14:55:53.660Z,97340.64
2018-12-20T15:00:48.528Z,97335.30
2018-12-20T15:05:43.159Z,97336.69
2018-12-20T15:10:37.960Z,97334.69
2018-12-20T15:15:32.940Z,97332.79
2018-12-20T15:20:27.703Z,97335.02
2018-12-20T15:25:22.489Z,97340.81
2018-12-20T15:30:17.173Z,97341.67
2018-12-20T15:35:11.888Z,97344.41
2018-12-20T15:40:09.998Z,97338.44
2018-12-20T15:45:05.416Z,97343.77
2018-12-20T15:50:05.586Z,97345.67
2018-12-20T15:55:00.661Z,97354.48
2018-12-20T16:00:08.118Z,97354.41
2018-12-20T16:05:14.577Z,97344.52
2018-12-20T16:10:23.995Z,97347.19
2018-12-20T16:15:31.207Z,97351.08
2018-12-20T16:20:28.402Z,97355.41
2018-12-20T16:25:23.163Z,97356.70
2018-12-20T16:30:18.014Z,97365.69
2018-12-20T16:35:12.862Z,97363.98
2018-12-20T16:40:07.860Z,97369.33
2018-12-20T16:45:02.614Z,97382.36
2018-12-20T16:49:57.470Z,97381.40
2018-12-20T17:54:25.386Z,97455.45
2018-12-20T17:59:20.167Z,97450.70
2018-12-20T18:04:14.833Z,97458.86
2018-12-20T18:09:11.477Z,97462.92
2018-12-20T18:14:06.426Z,97472.70
2018-12-20T18:19:04.251Z,97471.42
2018-12-20T18:23:58.987Z,97477.02
2018-12-20T18:28:53.675Z,97478.14
2018-12-20T18:33:49.047Z,97483.04
2018-12-20T18:38:43.886Z,97477.59
2018-12-20T18:43:38.729Z,97482.88
2018-12-20T18:48:33.484Z,97487.63
2018-12-20T18:53:29.098Z,97492.42
2018-12-20T18:58:24.214Z,97491.41
2018-12-20T19:03:18.931Z,97492.27
2018-12-20T19:08:13.883Z,97497.45
2018-12-20T19:13:18.452Z,97500.87
2018-12-20T19:18:17.749Z,97499.78
2018-12-20T19:23:12.609Z,97497.97
2018-12-20T19:28:07.568Z,97490.84
2018-12-20T19:33:02.333Z,97495.58
2018-12-20T19:37:57.045Z,97493.73
2018-12-20T19:42:51.689Z,97495.01
2018-12-20T19:47:46.448Z,97497.74
2018-12-20T19:52:41.141Z,97496.64
2018-12-20T19:57:35.786Z,97503.17
2018-12-20T20:02:30.487Z,97498.48
2018-12-20T20:07:25.215Z,97494.73
2018-12-20T20:12:20.133Z,97494.54
2018-12-20T20:17:15.171Z,97484.99
2018-12-20T20:22:09.988Z,97482.05
2018-12-20T20:27:04.627Z,97482.02
2018-12-20T20:32:11.482Z,97485.18
2018-12-20T20:37:12.603Z,97488.08
2018-12-20T20:42:08.766Z,97482.32
2018-12-20T20:47:07.407Z,97470.75
2018-12-20T20:52:02.224Z,97470.09
2018-12-20T20:56:56.993Z,97469.82
2018-12-20T21:01:52.014Z,97473.70
2018-12-20T21:06:47.345Z,97476.63
2018-12-20T21:11:42.510Z,97478.02
2018-12-20T21:16:37.268Z,97481.84
2018-12-20T21:21:32.463Z,97489.80
2018-12-20T21:26:29.035Z,97501.13
2018-12-20T21:31:23.788Z,97506.61
2018-12-20T21:36:18.556Z,97503.30
2018-12-20T21:41:31.955Z,97502.27
2018-12-20T21:46:26.784Z,97501.35
2018-12-20T21:51:21.581Z,97501.43
2018-12-20T21:56:18.802Z,97502.01
2018-12-20T22:01:30.278Z,97506.72
2018-12-20T22:06:30.558Z,97512.83
2018-12-20T22:11:25.275Z,97516.46
2018-12-20T22:16:20.110Z,97528.61
2018-12-20T22:21:14.796Z,97531.06
2018-12-20T22:31:37.267Z,97543.28
2018-12-20T22:36:33.173Z,97552.03
2018-12-20T22:41:39.929Z,97549.44
2018-12-20T22:46:34.665Z,97538.66
2018-12-20T22:51:39.328Z,97521.39
2018-12-20T22:56:34.034Z,97524.25
2018-12-20T23:01:29.022Z,97525.66
2018-12-20T23:06:23.838Z,97508.47
2018-12-20T23:11:40.776Z,97508.86
2018-12-20T23:22:12.135Z,97513.73
2018-12-20T23:27:08.645Z,97509.65
2018-12-20T23:32:04.774Z,97520.50
2018-12-20T23:37:01.309Z,97529.25
2018-12-20T23:42:03.172Z,97527.41
2018-12-20T23:46:57.806Z,97525.17
2018-12-20T23:51:54.116Z,97525.09
2018-12-20T23:56:49.486Z,97519.71
